createdAt,value
2022-12-17T00:00:52.351Z,23.58
2022-12-17T00:06:05.836Z,24.63
2022-12-17T00:08:32.672Z,23.73
2022-12-17T00:10:59.412Z,22.17
2022-12-17T00:13:26.225Z,23.90
2022-12-17T00:15:53.420Z,21.63
2022-12-17T00:18:23.761Z,22.20
2022-12-17T00:20:59.492Z,21.02
2022-12-17T00:23:26.264Z,21.65
2022-12-17T00:25:54.863Z,22.20
2022-12-17T00:28:21.797Z,21.63
2022-12-17T00:30:55.558Z,22.00
2022-12-17T00:33:22.326Z,21.70
2022-12-17T00:38:41.751Z,21.98
2022-12-17T00:43:55.242Z,22.40
2022-12-17T00:49:09.943Z,21.60
2022-12-17T00:51:36.680Z,20.30
2022-12-17T00:54:03.650Z,21.05
2022-12-17T00:56:30.380Z,20.00
2022-12-17T00:58:57.291Z,20.10
2022-12-17T01:01:24.048Z,20.98
2022-12-17T01:03:50.888Z,21.40
2022-12-17T01:06:18.899Z,21.42
2022-12-17T01:08:45.673Z,22.95
2022-12-17T01:11:12.459Z,19.52
2022-12-17T01:13:39.530Z,20.02
2022-12-17T01:16:09.471Z,19.70
2022-12-17T01:18:36.538Z,19.70
2022-12-17T01:21:03.396Z,20.13
2022-12-17T01:23:30.234Z,20.15
2022-12-17T01:25:58.091Z,20.08
2022-12-17T01:28:25.934Z,20.90
2022-12-17T01:30:52.767Z,19.60
2022-12-17T01:33:19.494Z,19.90
2022-12-17T01:35:46.287Z,18.95
2022-12-17T01:38:18.876Z,18.77
2022-12-17T01:40:52.081Z,18.50
2022-12-17T01:43:35.931Z,18.40
2022-12-17T01:46:03.141Z,17.85
2022-12-17T01:48:44.127Z,18.60
2022-12-17T01:51:10.941Z,19.10
2022-12-17T01:53:43.245Z,20.73
2022-12-17T01:56:10.861Z,22.83
2022-12-17T01:58:38.651Z,27.63
2022-12-17T02:01:05.715Z,27.35
2022-12-17T02:03:32.767Z,25.40
2022-12-17T02:06:23.234Z,21.85
2022-12-17T02:09:19.261Z,21.73
2022-12-17T02:12:04.673Z,19.27
2022-12-17T02:14:51.756Z,21.92
2022-12-17T02:17:23.669Z,18.83
2022-12-17T02:19:50.387Z,18.17
2022-12-17T02:23:10.797Z,17.53
2022-12-17T02:25:51.330Z,16.83
2022-12-17T02:28:19.187Z,17.65
2022-12-17T02:33:13.704Z,20.02
2022-12-17T02:38:27.972Z,19.35
2022-12-17T02:40:54.888Z,18.58
2022-12-17T02:43:25.472Z,18.27
2022-12-17T02:45:52.632Z,17.88
2022-12-17T02:48:19.933Z,17.70
2022-12-17T02:50:47.204Z,17.15
2022-12-17T02:53:14.159Z,18.52
2022-12-17T02:55:40.960Z,19.10
2022-12-17T02:58:07.781Z,18.45
2022-12-17T03:00:34.589Z,16.15
2022-12-17T03:03:01.447Z,16.10
2022-12-17T03:05:44.500Z,16.70
2022-12-17T03:08:12.286Z,15.90
2022-12-17T03:10:39.048Z,17.10
2022-12-17T03:13:05.797Z,15.27
2022-12-17T03:15:32.539Z,15.55
2022-12-17T03:17:59.303Z,15.50
2022-12-17T03:20:26.139Z,15.75
2022-12-17T03:22:52.915Z,15.30
2022-12-17T03:25:19.862Z,15.00
2022-12-17T03:27:46.615Z,14.52
2022-12-17T03:30:13.451Z,14.95
2022-12-17T03:32:40.246Z,14.85
2022-12-17T03:35:07.133Z,14.90
2022-12-17T03:37:33.887Z,14.77
2022-12-17T03:40:00.637Z,14.50
2022-12-17T03:42:27.422Z,15.20
2022-12-17T03:44:54.141Z,14.73
2022-12-17T03:47:20.926Z,14.30
2022-12-17T03:49:47.737Z,15.18
2022-12-17T03:52:14.471Z,15.43
2022-12-17T03:54:41.231Z,15.43
2022-12-17T03:57:13.035Z,16.30
2022-12-17T03:59:42.706Z,16.02
2022-12-17T04:02:09.665Z,16.80
2022-12-17T04:04:36.659Z,17.33
2022-12-17T04:07:03.391Z,17.00
2022-12-17T04:09:30.213Z,15.63
2022-12-17T04:11:56.935Z,15.73
2022-12-17T04:14:23.701Z,15.75
2022-12-17T04:16:50.509Z,14.95
2022-12-17T04:19:17.284Z,15.73
2022-12-17T04:24:30.692Z,14.35
2022-12-17T04:29:44.130Z,12.43
2022-12-17T04:34:57.552Z,13.98
2022-12-17T04:40:12.346Z,13.40
2022-12-17T04:45:25.743Z,16.88
2022-12-17T04:48:09.399Z,15.68
2022-12-17T04:50:36.140Z,14.77
2022-12-17T04:53:05.220Z,14.73
2022-12-17T04:55:31.940Z,15.18
2022-12-17T04:58:06.156Z,14.32
2022-12-17T05:03:19.642Z,16.92
2022-12-17T05:05:46.410Z,15.50
2022-12-17T05:08:13.165Z,15.95
2022-12-17T05:10:39.922Z,16.80
2022-12-17T05:13:06.707Z,22.80
2022-12-17T05:15:33.518Z,19.35
2022-12-17T05:18:08.069Z,17.20
2022-12-17T05:23:06.147Z,15.50
2022-12-17T05:25:32.868Z,15.07
2022-12-17T05:30:52.858Z,15.40
2022-12-17T05:33:19.697Z,16.50
2022-12-17T05:35:46.477Z,17.02
2022-12-17T05:38:13.236Z,17.30
2022-12-17T05:40:39.999Z,16.38
2022-12-17T05:43:10.923Z,15.70
2022-12-17T05:45:38.637Z,16.23
2022-12-17T05:48:05.409Z,16.00
2022-12-17T05:50:32.191Z,15.70
2022-12-17T05:53:06.181Z,17.20
2022-12-17T05:55:32.973Z,19.23
2022-12-17T05:58:09.049Z,17.40
2022-12-17T06:03:04.591Z,16.10
2022-12-17T06:05:31.391Z,19.75
2022-12-17T06:08:08.933Z,36.13
2022-12-17T06:10:35.648Z,21.57
2022-12-17T06:13:02.388Z,15.15
2022-12-17T06:15:29.182Z,15.20
2022-12-17T06:17:56.944Z,14.85
2022-12-17T06:20:23.676Z,14.00
2022-12-17T06:23:01.222Z,16.02
2022-12-17T06:25:27.941Z,14.90
2022-12-17T06:30:57.747Z,14.60
2022-12-17T06:33:24.547Z,13.85
2022-12-17T06:35:53.155Z,14.88
2022-12-17T06:38:19.918Z,15.18
2022-12-17T06:40:47.021Z,14.50
2022-12-17T06:43:13.762Z,15.50
2022-12-17T06:45:40.713Z,14.88
2022-12-17T06:50:56.516Z,15.73
2022-12-17T06:56:09.914Z,17.42
2022-12-17T07:01:23.859Z,16.70
2022-12-17T07:06:37.324Z,16.25
2022-12-17T07:11:50.797Z,17.20
2022-12-17T07:14:17.609Z,16.88
2022-12-17T07:16:44.380Z,18.45
2022-12-17T07:19:11.703Z,17.80
2022-12-17T07:21:38.446Z,17.88
2022-12-17T07:24:05.483Z,18.63
2022-12-17T07:26:32.309Z,19.47
2022-12-17T07:28:59.085Z,20.00
2022-12-17T07:34:12.470Z,20.00
2022-12-17T07:39:25.892Z,22.13
2022-12-17T07:44:39.264Z,22.42
2022-12-17T07:49:52.686Z,21.25
2022-12-17T07:52:19.448Z,21.15
2022-12-17T07:54:46.194Z,20.92
2022-12-17T07:57:12.942Z,20.85
2022-12-17T07:59:39.674Z,21.42
2022-12-17T08:02:08.944Z,20.70
2022-12-17T08:04:37.127Z,21.92
2022-12-17T08:07:09.341Z,21.38
2022-12-17T08:09:37.950Z,21.67
2022-12-17T08:12:04.796Z,22.25
2022-12-17T08:14:31.544Z,21.50
2022-12-17T08:16:58.425Z,21.55
2022-12-17T08:19:25.236Z,21.52
2022-12-17T08:21:52.218Z,21.35
2022-12-17T08:24:19.404Z,21.40
2022-12-17T08:26:48.378Z,20.55
2022-12-17T08:29:15.516Z,20.23
2022-12-17T08:31:42.300Z,21.23
2022-12-17T08:34:09.056Z,32.20
2022-12-17T08:36:35.798Z,33.15
2022-12-17T08:39:02.970Z,23.73
2022-12-17T08:41:29.764Z,21.13
2022-12-17T08:43:56.511Z,22.27
2022-12-17T08:46:23.331Z,28.90
2022-12-17T08:48:50.169Z,23.75
2022-12-17T08:51:16.895Z,23.95
2022-12-17T08:53:43.598Z,24.40
2022-12-17T08:56:10.335Z,25.75
2022-12-17T08:58:37.080Z,28.77
2022-12-17T09:01:03.973Z,28.20
2022-12-17T09:03:30.937Z,26.75
2022-12-17T09:05:57.717Z,34.00
2022-12-17T09:08:24.459Z,30.48
2022-12-17T09:10:52.024Z,32.50
2022-12-17T09:13:18.764Z,38.08
2022-12-17T09:15:51.990Z,31.88
2022-12-17T09:18:20.581Z,32.97
2022-12-17T09:20:55.308Z,27.45
2022-12-17T09:23:22.065Z,28.95
2022-12-17T09:25:58.266Z,32.50
2022-12-17T09:28:25.245Z,33.90
2022-12-17T09:30:52.076Z,33.00
2022-12-17T09:33:19.115Z,30.17
2022-12-17T09:35:45.929Z,28.98
2022-12-17T09:38:13.969Z,26.55
2022-12-17T09:43:49.707Z,26.83
2022-12-17T09:46:35.694Z,30.50
2022-12-17T09:49:18.744Z,27.38
2022-12-17T09:51:45.606Z,25.40
2022-12-17T09:57:30.760Z,26.20
2022-12-17T09:59:57.594Z,26.23
2022-12-17T10:02:30.289Z,25.27
2022-12-17T10:04:58.752Z,25.70
2022-12-17T10:10:25.210Z,27.35
2022-12-17T10:12:52.014Z,26.20
2022-12-17T10:15:18.774Z,24.67
2022-12-17T10:17:45.955Z,24.30
2022-12-17T10:20:29.595Z,25.63
2022-12-17T10:22:56.350Z,26.47
2022-12-17T10:28:18.581Z,29.13
2022-12-17T10:30:47.584Z,28.55
2022-12-17T10:33:21.444Z,24.88
2022-12-17T10:35:48.347Z,25.55
2022-12-17T10:38:29.771Z,25.80
2022-12-17T10:40:56.751Z,26.05
2022-12-17T10:43:30.134Z,26.55
2022-12-17T10:45:57.727Z,28.02
2022-12-17T10:50:57.477Z,26.75
2022-12-17T10:53:26.143Z,27.20
2022-12-17T10:58:50.029Z,25.83
2022-12-17T11:01:24.033Z,24.33
2022-12-17T11:06:55.150Z,27.67
2022-12-17T11:12:55.169Z,27.63
2022-12-17T11:15:51.343Z,27.27
2022-12-17T11:18:48.388Z,31.42
2022-12-17T11:21:26.399Z,30.30
2022-12-17T11:23:55.004Z,27.83
2022-12-17T11:26:23.029Z,27.95
2022-12-17T11:28:49.963Z,27.08
2022-12-17T11:31:25.822Z,26.90
2022-12-17T11:34:03.314Z,26.48
2022-12-17T11:36:50.118Z,27.30
2022-12-17T11:39:46.116Z,27.05
2022-12-17T11:42:33.126Z,29.67
2022-12-17T11:45:06.151Z,25.93
2022-12-17T11:54:02.759Z,24.85
2022-12-17T11:56:52.570Z,24.83
2022-12-17T11:59:31.084Z,23.95
2022-12-17T12:02:31.341Z,24.67
2022-12-17T12:05:16.577Z,23.83
2022-12-17T12:07:55.600Z,23.40
2022-12-17T12:10:45.440Z,23.15
2022-12-17T12:13:28.909Z,23.17
2022-12-17T12:16:01.519Z,24.83
2022-12-17T12:18:48.805Z,23.17
2022-12-17T12:21:18.595Z,23.00
2022-12-17T12:27:40.799Z,24.00
2022-12-17T12:30:19.137Z,25.00
2022-12-17T12:33:04.331Z,24.00
2022-12-17T12:35:36.697Z,26.52
2022-12-17T12:41:02.913Z,25.65
2022-12-17T12:43:34.057Z,25.92
2022-12-17T12:46:09.182Z,26.10
2022-12-17T12:48:58.637Z,25.30
2022-12-17T12:51:34.195Z,27.50
2022-12-17T12:54:20.267Z,27.85
2022-12-17T12:56:47.189Z,28.63
2022-12-17T12:59:40.181Z,27.88
2022-12-17T13:02:33.764Z,29.10
2022-12-17T13:05:01.108Z,30.75
2022-12-17T13:10:29.449Z,30.65
2022-12-17T13:12:56.627Z,30.65
2022-12-17T13:15:36.287Z,30.50
2022-12-17T13:18:24.884Z,31.85
2022-12-17T13:24:11.258Z,32.10
2022-12-17T13:29:31.515Z,32.95
2022-12-17T13:32:11.875Z,32.65
2022-12-17T13:35:08.457Z,31.77
2022-12-17T13:37:55.088Z,32.13
2022-12-17T13:40:27.531Z,32.30
2022-12-17T13:42:54.499Z,32.77
2022-12-17T13:45:24.008Z,33.00
2022-12-17T13:50:56.310Z,33.20
2022-12-17T13:53:23.072Z,31.95
2022-12-17T13:55:52.235Z,30.75
2022-12-17T13:58:26.176Z,31.93
2022-12-17T14:01:26.755Z,32.42
2022-12-17T14:04:07.384Z,31.83
2022-12-17T14:04:11.255Z,0
2022-12-17T14:06:37.668Z,32.30
2022-12-17T14:09:04.799Z,32.97
2022-12-17T14:14:31.494Z,32.28
2022-12-17T14:19:45.614Z,32.00
2022-12-17T14:22:19.994Z,31.63
2022-12-17T14:24:46.968Z,30.30
2022-12-17T14:27:51.662Z,31.98
2022-12-17T14:31:17.271Z,31.50
2022-12-17T14:33:34.280Z,32.13
2022-12-17T14:36:07.315Z,30.52
2022-12-17T14:38:38.692Z,31.95
2022-12-17T14:44:02.459Z,31.98
2022-12-17T14:49:20.351Z,32.92
2022-12-17T14:51:48.927Z,33.23
2022-12-17T14:54:29.851Z,33.67
2022-12-17T14:57:00.721Z,32.92
2022-12-17T14:59:38.685Z,32.30
2022-12-17T15:02:14.238Z,31.70
2022-12-17T15:04:41.189Z,33.83
2022-12-17T15:07:10.966Z,32.63
2022-12-17T15:09:41.545Z,35.20
2022-12-17T15:12:09.458Z,35.88
2022-12-17T15:14:36.196Z,32.90
2022-12-17T15:17:03.007Z,33.20
2022-12-17T15:19:30.120Z,32.30
2022-12-17T15:21:56.923Z,33.05
2022-12-17T15:24:23.638Z,32.83
2022-12-17T15:26:50.496Z,31.80
2022-12-17T15:29:17.293Z,32.70
2022-12-17T15:31:44.122Z,31.95
2022-12-17T15:34:12.058Z,32.70
2022-12-17T15:36:39.096Z,32.40
2022-12-17T15:39:06.805Z,32.60
2022-12-17T15:44:20.448Z,33.30
2022-12-17T15:46:47.270Z,33.28
2022-12-17T15:49:14.221Z,33.80
2022-12-17T15:51:40.974Z,32.75
2022-12-17T15:54:07.770Z,32.97
2022-12-17T15:56:34.481Z,31.92
2022-12-17T15:59:01.220Z,29.88
2022-12-17T16:01:28.168Z,31.45
2022-12-17T16:03:55.026Z,30.50
2022-12-17T16:06:21.850Z,29.55
2022-12-17T16:08:48.591Z,31.40
2022-12-17T16:14:02.262Z,30.42
2022-12-17T16:19:17.308Z,29.35
2022-12-17T16:21:46.932Z,31.17
2022-12-17T16:24:14.182Z,32.50
2022-12-17T16:26:41.103Z,36.72
2022-12-17T16:29:07.911Z,33.65
2022-12-17T16:31:35.341Z,33.50
2022-12-17T16:34:02.149Z,31.77
2022-12-17T16:36:28.979Z,30.87
2022-12-17T16:41:43.361Z,32.55
2022-12-17T16:44:10.171Z,31.70
2022-12-17T16:46:39.927Z,31.88
2022-12-17T16:49:09.311Z,32.22
2022-12-17T16:51:36.167Z,33.30
2022-12-17T16:54:07.831Z,32.15
2022-12-17T16:56:39.685Z,30.85
2022-12-17T16:59:07.397Z,30.63
2022-12-17T17:01:35.390Z,30.85
2022-12-17T17:04:03.301Z,31.52
2022-12-17T17:09:17.864Z,32.70
2022-12-17T17:11:49.636Z,30.02
2022-12-17T17:14:18.660Z,31.65
2022-12-17T17:16:45.613Z,32.97
2022-12-17T17:19:12.406Z,32.67
2022-12-17T17:21:41.811Z,31.90
2022-12-17T17:24:20.079Z,33.10
2022-12-17T17:26:47.954Z,33.50
2022-12-17T17:37:15.178Z,31.70
2022-12-17T17:39:42.270Z,31.45
2022-12-17T17:42:09.145Z,31.27
2022-12-17T17:44:35.989Z,32.00
2022-12-17T17:47:02.888Z,30.30
2022-12-17T17:49:29.801Z,30.60
2022-12-17T17:52:12.290Z,31.00
2022-12-17T17:52:13.551Z,0
2022-12-17T17:54:39.938Z,31.90
2022-12-17T17:57:06.939Z,30.85
2022-12-17T17:59:34.506Z,30.10
2022-12-17T18:02:02.742Z,29.47
2022-12-17T18:04:30.205Z,30.00
2022-12-17T18:09:44.138Z,29.00
2022-12-17T18:12:11.252Z,30.95
2022-12-17T18:14:46.642Z,30.75
2022-12-17T18:17:19.223Z,29.13
2022-12-17T18:19:45.970Z,29.50
2022-12-17T18:22:12.734Z,29.20
2022-12-17T18:24:39.473Z,29.30
2022-12-17T18:27:06.212Z,30.07
2022-12-17T18:29:33.117Z,29.20
2022-12-17T18:31:59.961Z,30.17
2022-12-17T18:34:26.905Z,30.25
2022-12-17T18:36:54.026Z,29.95
2022-12-17T18:39:23.260Z,28.92
2022-12-17T18:41:51.635Z,30.25
2022-12-17T18:44:19.366Z,31.65
2022-12-17T18:46:46.681Z,30.63
2022-12-17T18:47:00.223Z,0
2022-12-17T18:49:15.693Z,32.60
2022-12-17T18:51:44.475Z,31.90
2022-12-17T18:54:17.093Z,31.25
2022-12-17T18:59:30.995Z,32.60
2022-12-17T19:01:58.743Z,29.40
2022-12-17T19:04:26.471Z,29.50
2022-12-17T19:06:54.015Z,29.83
2022-12-17T19:09:26.914Z,28.13
2022-12-17T19:14:22.409Z,30.55
2022-12-17T19:16:50.926Z,28.75
2022-12-17T19:22:05.217Z,31.00
2022-12-17T19:24:31.967Z,30.67
2022-12-17T19:26:58.717Z,30.90
2022-12-17T19:29:25.512Z,32.38
2022-12-17T19:31:52.308Z,33.60
2022-12-17T19:34:19.723Z,32.28
2022-12-17T19:36:47.101Z,32.35
2022-12-17T19:39:19.320Z,32.05
2022-12-17T19:41:46.273Z,33.43
2022-12-17T19:44:15.557Z,34.10
2022-12-17T19:46:43.308Z,33.10
2022-12-17T19:49:15.136Z,32.63
2022-12-17T19:51:42.313Z,34.10
2022-12-17T19:54:09.586Z,34.92
2022-12-17T19:56:36.566Z,35.20
2022-12-17T19:59:06.342Z,35.73
2022-12-17T20:01:35.463Z,33.22
2022-12-17T20:04:02.643Z,33.20
2022-12-17T20:06:32.231Z,33.20
2022-12-17T20:08:59.531Z,32.70
2022-12-17T20:11:27.307Z,33.50
2022-12-17T20:14:06.062Z,33.33
2022-12-17T20:16:37.114Z,33.30
2022-12-17T20:19:05.931Z,33.10
2022-12-17T20:21:32.947Z,34.20
2022-12-17T20:23:59.720Z,34.97
2022-12-17T20:26:26.810Z,33.90
2022-12-17T20:28:55.161Z,33.70
2022-12-17T20:31:22.327Z,32.58
2022-12-17T20:33:49.564Z,33.80
2022-12-17T20:36:22.000Z,33.17
2022-12-17T20:38:49.255Z,34.15
2022-12-17T20:41:17.438Z,33.38
2022-12-17T20:43:44.903Z,33.92
2022-12-17T20:46:12.726Z,32.17
2022-12-17T20:48:42.003Z,32.83
2022-12-17T20:51:13.074Z,34.50
2022-12-17T20:53:40.275Z,33.80
2022-12-17T20:56:10.120Z,33.30
2022-12-17T20:58:38.384Z,33.45
2022-12-17T21:01:14.237Z,31.90
2022-12-17T21:03:42.008Z,32.22
2022-12-17T21:08:49.381Z,32.80
2022-12-17T21:11:22.660Z,32.53
2022-12-17T21:13:49.825Z,33.58
2022-12-17T21:16:25.174Z,31.80
2022-12-17T21:18:52.610Z,31.52
2022-12-17T21:24:10.956Z,32.50
2022-12-17T21:29:28.765Z,31.40
2022-12-17T21:31:55.872Z,33.40
2022-12-17T21:34:23.721Z,31.63
2022-12-17T21:36:52.017Z,31.55
2022-12-17T21:39:20.004Z,33.90
2022-12-17T21:41:49.075Z,32.60
2022-12-17T21:44:15.890Z,32.60
2022-12-17T21:46:43.369Z,31.13
2022-12-17T21:49:11.123Z,33.20
2022-12-17T21:51:38.160Z,30.57
2022-12-17T21:54:09.035Z,31.55
2022-12-17T21:54:23.960Z,0
2022-12-17T21:59:23.738Z,32.20
2022-12-17T22:04:37.476Z,31.38
2022-12-17T22:07:10.328Z,31.27
2022-12-17T22:07:51.353Z,0
2022-12-17T22:09:53.523Z,31.90
2022-12-17T22:10:53.699Z,0
2022-12-17T22:12:33.898Z,31.80
2022-12-17T22:14:23.173Z,0
2022-12-17T22:15:00.701Z,32.40
2022-12-17T22:17:28.320Z,32.35
2022-12-17T22:19:55.117Z,32.13
2022-12-17T22:22:21.874Z,32.00
2022-12-17T22:24:48.642Z,31.70
2022-12-17T22:27:15.549Z,32.40
2022-12-17T22:32:11.739Z,30.70
2022-12-17T22:35:15.779Z,32.70
2022-12-17T22:39:30.545Z,31.42
2022-12-17T22:44:29.615Z,32.38
2022-12-17T22:44:37.449Z,31.48
2022-12-17T22:45:11.323Z,0
2022-12-17T22:45:48.293Z,32.00
2022-12-17T22:48:15.141Z,30.35
2022-12-17T22:51:03.404Z,29.90
2022-12-17T22:51:44.311Z,0
2022-12-17T22:53:29.556Z,31.90
2022-12-17T22:56:15.840Z,31.90
2022-12-17T22:57:39.602Z,0
2022-12-17T23:01:36.027Z,31.98
2022-12-17T23:06:49.899Z,32.33
2022-12-17T23:12:06.369Z,30.52
2022-12-17T23:14:33.518Z,31.25
2022-12-17T23:17:01.880Z,30.13
2022-12-17T23:19:29.360Z,29.75
2022-12-17T23:21:56.328Z,29.33
2022-12-17T23:24:23.577Z,28.47
2022-12-17T23:26:50.701Z,27.50
2022-12-17T23:29:19.752Z,28.40
2022-12-17T23:31:47.629Z,27.90
2022-12-17T23:34:15.412Z,28.00
2022-12-17T23:36:42.356Z,28.27
2022-12-17T23:41:56.254Z,27.05
2022-12-17T23:47:09.994Z,29.00
2022-12-17T23:49:36.814Z,28.23
2022-12-17T23:52:03.594Z,25.63
2022-12-17T23:54:30.341Z,27.35
2022-12-17T23:56:57.200Z,27.83
2022-12-17T23:59:24.094Z,27.85
